Time;durP1;ratioP1;P1;durP2;ratioP2;P2;SDS_P1;SDS_P2;PMS_P1;PMS_P2;Temp;Humidity;BMP_temperature;BMP_pressure;BME280_temperature;BME280_humidity;BME280_pressure;Samples;Min_cycle;Max_cycle;Signal;HPM_P1;HPM_P2
2023/06/02 00:02:22;;;;;;;15.32;4.05;;;13.00;99.90;;;;;;5095445;28;20032;-84
2023/06/02 00:04:49;;;;;;;18.52;4.78;;;12.40;99.90;;;;;;5094054;28;20487;-84
2023/06/02 00:07:15;;;;;;;10.43;2.88;;;12.90;99.90;;;;;;5094927;28;20042;-84
2023/06/02 00:09:42;;;;;;;12.75;3.22;;;13.00;99.90;;;;;;5094951;28;20024;-84
2023/06/02 00:12:10;;;;;;;13.85;2.90;;;13.00;99.90;;;;;;5098917;28;20480;-84
2023/06/02 00:14:42;;;;;;;17.02;3.97;;;13.00;99.90;;;;;;5095857;28;20031;-84
2023/06/02 00:17:08;;;;;;;13.82;3.22;;;13.00;99.90;;;;;;5093796;28;20585;-84
2023/06/02 00:19:35;;;;;;;14.00;3.58;;;13.10;99.90;;;;;;5094805;28;20032;-84
2023/06/02 00:22:02;;;;;;;19.63;4.28;;;13.00;99.90;;;;;;5094659;28;20403;-84
2023/06/02 00:24:27;;;;;;;17.38;3.30;;;13.70;99.90;;;;;;5093586;28;20483;-84
2023/06/02 00:26:53;;;;;;;12.63;3.88;;;13.00;99.90;;;;;;5094554;28;20078;-84
2023/06/02 00:29:19;;;;;;;13.77;4.22;;;12.90;99.90;;;;;;5094278;28;20028;-84
2023/06/02 00:31:44;;;;;;;18.35;4.07;;;12.90;99.90;;;;;;5093537;28;20026;-84
2023/06/02 00:34:10;;;;;;;17.75;3.70;;;12.90;99.90;;;;;;5094210;28;20380;-84
2023/06/02 00:36:36;;;;;;;19.25;3.92;;;12.90;99.90;;;;;;5094109;28;20031;-84
2023/06/02 00:39:01;;;;;;;15.98;3.80;;;12.80;99.90;;;;;;5093646;28;20028;-84
2023/06/02 00:41:28;;;;;;;12.45;3.38;;;12.80;99.90;;;;;;5094130;28;20369;-84
2023/06/02 00:43:53;;;;;;;13.68;3.45;;;12.80;99.90;;;;;;5094105;28;20032;-84
2023/06/02 00:46:19;;;;;;;15.57;3.85;;;13.80;99.90;;;;;;5093370;28;20031;-84
2023/06/02 00:48:48;;;;;;;11.80;4.20;;;12.70;99.90;;;;;;5094187;28;20058;-84
2023/06/02 00:51:15;;;;;;;16.55;3.90;;;12.60;99.90;;;;;;5094030;28;20076;-83
2023/06/02 00:53:41;;;;;;;17.35;4.47;;;12.60;99.90;;;;;;5092295;28;20484;-84
2023/06/02 00:56:07;;;;;;;13.98;3.70;;;12.60;99.90;;;;;;5093966;28;20054;-84
2023/06/02 00:58:37;;;;;;;11.07;3.60;;;12.60;99.90;;;;;;5093879;28;20469;-84
2023/06/02 01:01:03;;;;;;;23.00;5.57;;;12.40;99.90;;;;;;5093037;28;20054;-84
2023/06/02 01:03:29;;;;;;;17.83;3.92;;;12.60;99.90;;;;;;5093868;28;20028;-84
2023/06/02 01:05:57;;;;;;;14.00;4.45;;;12.70;99.90;;;;;;5093717;28;20032;-84
2023/06/02 01:08:24;;;;;;;13.73;3.70;;;12.70;99.90;;;;;;5093137;28;20028;-84
2023/06/02 01:10:50;;;;;;;9.07;3.25;;;13.30;99.90;;;;;;5093708;28;20020;-84
2023/06/02 01:13:16;;;;;;;19.17;5.20;;;12.60;99.90;;;;;;5092901;28;20069;-84
2023/06/02 01:15:46;;;;;;;14.82;3.85;;;12.60;99.90;;;;;;5093466;28;20375;-84
2023/06/02 01:18:12;;;;;;;13.50;3.42;;;12.30;99.90;;;;;;5093793;28;20034;-83
2023/06/02 01:20:48;;;;;;;17.70;3.38;;;13.50;99.90;;;;;;5092676;28;20066;-83
2023/06/02 01:23:21;;;;;;;15.50;4.28;;;12.50;99.90;;;;;;5093388;28;20499;-84
2023/06/02 01:25:46;;;;;;;14.48;4.10;;;12.50;99.90;;;;;;5093341;28;20044;-84
2023/06/02 01:28:13;;;;;;;17.25;4.47;;;12.50;99.90;;;;;;5092579;28;20020;-84
2023/06/02 01:30:39;;;;;;;15.35;4.50;;;12.40;99.90;;;;;;5093514;28;20115;-83
2023/06/02 01:33:31;;;;;;;13.15;4.63;;;12.50;99.90;;;;;;5093444;28;20501;-83
2023/06/02 01:36:00;;;;;;;10.45;4.38;;;12.50;99.90;;;;;;5094984;28;20028;-84
2023/06/02 01:38:27;;;;;;;9.55;4.53;;;12.50;99.90;;;;;;5093279;28;20027;-84
2023/06/02 01:40:56;;;;;;;19.80;4.85;;;12.60;99.90;;;;;;5092941;28;20047;-84
2023/06/02 01:43:21;;;;;;;12.95;4.07;;;12.50;99.90;;;;;;5092136;28;20054;-84
2023/06/02 01:45:47;;;;;;;12.40;3.75;;;12.40;99.90;;;;;;5093085;28;20067;-83
2023/06/02 01:48:13;;;;;;;16.17;4.45;;;12.30;99.90;;;;;;5093157;28;20024;-83
2023/06/02 01:50:40;;;;;;;14.27;4.07;;;12.30;99.90;;;;;;5092354;28;20466;-84
2023/06/02 01:53:06;;;;;;;10.60;3.22;;;12.30;99.90;;;;;;5092797;28;20032;-83
2023/06/02 01:55:31;;;;;;;11.90;3.33;;;12.20;99.90;;;;;;5092523;28;20437;-84
2023/06/02 01:57:57;;;;;;;9.30;3.60;;;12.80;99.90;;;;;;5093245;28;20016;-84
2023/06/02 02:00:23;;;;;;;13.27;3.30;;;12.30;99.90;;;;;;5093339;28;20017;-84
2023/06/02 02:02:50;;;;;;;14.82;4.72;;;12.30;99.90;;;;;;5092388;28;20392;-83
2023/06/02 02:05:16;;;;;;;18.77;3.65;;;12.30;99.90;;;;;;5094056;28;20047;-84
2023/06/02 02:07:42;;;;;;;13.88;3.78;;;12.20;99.90;;;;;;5097017;28;20047;-84
2023/06/02 02:10:11;;;;;;;8.07;2.95;;;12.20;99.90;;;;;;5096634;28;20115;-84
2023/06/02 02:12:38;;;;;;;8.73;2.88;;;12.20;99.90;;;;;;5097120;28;20059;-84
2023/06/02 02:15:04;;;;;;;11.48;3.50;;;12.20;99.90;;;;;;5096768;28;20103;-84
2023/06/02 02:17:30;;;;;;;9.90;4.05;;;12.20;99.90;;;;;;5096211;28;20531;-84
2023/06/02 02:19:56;;;;;;;17.10;3.97;;;12.20;99.90;;;;;;5096856;28;20067;-84
2023/06/02 02:22:23;;;;;;;10.25;3.92;;;12.20;99.90;;;;;;5096835;28;20036;-84
2023/06/02 02:24:49;;;;;;;8.15;2.60;;;12.20;99.90;;;;;;5095899;28;20089;-83
2023/06/02 02:27:15;;;;;;;9.57;3.30;;;11.90;99.90;;;;;;5096794;28;20052;-84
2023/06/02 02:29:41;;;;;;;21.88;4.35;;;12.20;99.90;;;;;;5096769;28;20048;-84
2023/06/02 02:32:07;;;;;;;12.02;3.20;;;12.70;99.90;;;;;;5095854;28;20483;-84
2023/06/02 02:34:33;;;;;;;9.43;3.50;;;12.20;99.90;;;;;;5096617;28;20024;-83
2023/06/02 02:37:01;;;;;;;13.05;3.03;;;12.10;99.90;;;;;;5096964;28;20085;-84
2023/06/02 02:39:29;;;;;;;7.18;2.83;;;12.40;99.90;;;;;;5095737;28;20567;-84
2023/06/02 02:41:55;;;;;;;10.60;2.92;;;12.20;99.90;;;;;;5096627;28;20438;-84
2023/06/02 02:44:21;;;;;;;9.45;3.67;;;12.20;99.90;;;;;;5096423;28;20038;-83
2023/06/02 02:46:46;;;;;;;12.43;3.55;;;12.20;99.90;;;;;;5095599;28;20506;-84
2023/06/02 02:49:12;;;;;;;6.13;3.33;;;12.20;99.90;;;;;;5096236;28;20115;-84
2023/06/02 02:51:37;;;;;;;13.27;3.28;;;12.10;99.90;;;;;;5095924;28;20490;-84
2023/06/02 02:54:03;;;;;;;11.80;3.70;;;12.20;99.90;;;;;;5096269;28;20556;-84
2023/06/02 02:56:30;;;;;;;14.13;2.90;;;12.10;99.90;;;;;;5096074;28;20050;-84
2023/06/02 02:58:59;;;;;;;13.07;3.72;;;12.20;99.90;;;;;;5099137;28;20278;-83
2023/06/02 03:01:26;;;;;;;10.48;3.25;;;12.30;99.90;;;;;;5096209;28;20391;-84
2023/06/02 03:03:53;;;;;;;9.50;2.97;;;12.30;99.90;;;;;;5095899;28;20047;-84
2023/06/02 03:06:19;;;;;;;6.10;2.50;;;12.30;99.90;;;;;;5095493;28;20114;-84
2023/06/02 03:08:46;;;;;;;6.25;2.78;;;12.30;99.90;;;;;;5095883;28;20356;-84
2023/06/02 03:11:12;;;;;;;11.35;3.60;;;12.20;99.90;;;;;;5095853;28;20039;-83
2023/06/02 03:13:37;;;;;;;14.02;3.75;;;12.10;99.90;;;;;;5095014;28;20020;-84
2023/06/02 03:16:03;;;;;;;8.43;3.30;;;12.50;99.90;;;;;;5095686;28;20114;-84
2023/06/02 03:18:29;;;;;;;10.23;3.28;;;12.10;99.90;;;;;;5094950;28;20020;-84
2023/06/02 03:20:58;;;;;;;14.10;2.88;;;12.10;99.90;;;;;;5095164;28;20024;-84
2023/06/02 03:23:28;;;;;;;12.90;3.10;;;12.00;99.90;;;;;;5095809;28;20085;-83
2023/06/02 03:25:54;;;;;;;10.98;3.50;;;12.70;99.90;;;;;;5095705;28;20036;-84
2023/06/02 03:28:20;;;;;;;13.57;4.20;;;12.00;99.90;;;;;;5094746;28;20435;-84
2023/06/02 03:30:46;;;;;;;10.68;3.25;;;12.00;99.90;;;;;;5095572;28;20036;-83
2023/06/02 03:33:12;;;;;;;14.80;3.55;;;12.00;99.90;;;;;;5095131;28;20393;-84
2023/06/02 03:35:37;;;;;;;15.10;3.80;;;12.10;99.90;;;;;;5095004;28;20024;-84
2023/06/02 03:38:05;;;;;;;12.43;3.38;;;12.10;99.90;;;;;;5095516;28;20491;-84
2023/06/02 03:40:31;;;;;;;10.65;3.25;;;12.40;99.90;;;;;;5095428;28;20052;-84
2023/06/02 03:42:57;;;;;;;13.07;3.75;;;12.10;99.90;;;;;;5094587;28;20427;-84
2023/06/02 03:45:22;;;;;;;19.48;3.55;;;12.20;99.90;;;;;;5095244;28;20395;-84
2023/06/02 03:47:48;;;;;;;16.15;2.58;;;12.20;99.90;;;;;;5095111;28;20353;-84
2023/06/02 03:50:13;;;;;;;15.23;2.97;;;12.20;99.90;;;;;;5094612;28;20459;-83
2023/06/02 03:52:39;;;;;;;16.55;3.60;;;12.20;99.90;;;;;;5094847;28;20063;-83
2023/06/02 03:55:05;;;;;;;13.85;3.05;;;12.20;99.90;;;;;;5094315;28;20044;-84
2023/06/02 03:57:31;;;;;;;8.02;3.03;;;12.30;99.90;;;;;;5095081;28;20023;-84
2023/06/02 03:59:57;;;;;;;15.70;3.80;;;11.80;99.90;;;;;;5094809;28;20388;-84
2023/06/02 04:02:23;;;;;;;14.50;3.08;;;12.20;99.90;;;;;;5094123;28;20016;-84
2023/06/02 04:04:48;;;;;;;15.75;3.40;;;12.30;99.90;;;;;;5094973;28;20032;-84
2023/06/02 04:07:14;;;;;;;8.35;2.83;;;12.30;99.90;;;;;;5094988;28;20023;-84
2023/06/02 04:09:39;;;;;;;10.70;3.00;;;12.20;99.90;;;;;;5094209;28;20406;-84
2023/06/02 04:12:06;;;;;;;17.00;3.17;;;12.20;99.90;;;;;;5076590;28;20016;-84
2023/06/02 04:14:33;;;;;;;17.15;3.50;;;12.20;99.90;;;;;;5094745;28;20047;-84
2023/06/02 04:16:58;;;;;;;10.55;2.60;;;12.30;99.90;;;;;;5093861;28;20429;-84
2023/06/02 04:19:24;;;;;;;15.15;2.88;;;12.50;99.90;;;;;;5094584;28;20020;-84
2023/06/02 04:21:49;;;;;;;16.15;3.97;;;12.20;99.90;;;;;;5099074;28;20070;-84
2023/06/02 04:24:15;;;;;;;6.35;2.22;;;12.30;99.90;;;;;;5094079;28;20525;-84
2023/06/02 04:26:41;;;;;;;14.70;2.88;;;12.20;99.90;;;;;;5094586;28;20384;-84
2023/06/02 04:29:06;;;;;;;10.80;2.80;;;11.90;99.90;;;;;;5094339;28;20012;-84
2023/06/02 04:31:43;;;;;;;9.95;2.90;;;12.20;99.90;;;;;;5093604;28;20032;-84
2023/06/02 04:34:10;;;;;;;14.13;3.53;;;12.30;99.90;;;;;;5094699;28;20046;-83
2023/06/02 04:36:36;;;;;;;15.80;2.88;;;12.30;99.90;;;;;;5094387;28;20095;-84
2023/06/02 04:39:03;;;;;;;13.05;3.00;;;12.30;99.90;;;;;;5093598;28;20035;-84
2023/06/02 04:41:31;;;;;;;12.80;3.20;;;12.20;99.90;;;;;;5094179;28;20511;-84
2023/06/02 04:43:58;;;;;;;11.30;2.95;;;12.20;99.90;;;;;;5093891;28;20032;-83
2023/06/02 04:46:26;;;;;;;10.93;3.20;;;12.20;99.90;;;;;;5093541;28;20093;-84
2023/06/02 04:48:52;;;;;;;8.43;2.70;;;11.50;99.90;;;;;;5094104;28;20069;-84
2023/06/02 04:51:19;;;;;;;12.35;3.33;;;12.70;99.90;;;;;;5093561;28;20020;-83
2023/06/02 04:53:45;;;;;;;11.98;2.70;;;12.10;99.90;;;;;;5093898;28;20056;-84
2023/06/02 04:56:11;;;;;;;12.18;2.97;;;12.30;99.90;;;;;;5093961;28;20031;-84
2023/06/02 04:58:37;;;;;;;16.60;3.40;;;12.10;99.90;;;;;;5093240;28;20054;-83
2023/06/02 05:01:03;;;;;;;12.80;2.83;;;12.00;99.90;;;;;;5094072;28;20024;-84
2023/06/02 05:03:29;;;;;;;7.93;2.10;;;12.10;99.90;;;;;;5093894;28;20034;-84
2023/06/02 05:05:55;;;;;;;12.32;2.70;;;12.20;99.90;;;;;;5093134;28;20097;-83
2023/06/02 05:08:21;;;;;;;12.57;2.78;;;12.10;99.90;;;;;;5093485;28;20024;-83
2023/06/02 05:10:47;;;;;;;11.85;2.75;;;12.10;99.90;;;;;;5093756;28;20024;-84
2023/06/02 05:13:14;;;;;;;13.63;3.28;;;12.10;99.90;;;;;;5092575;28;20536;-83
2023/06/02 05:15:39;;;;;;;17.38;2.75;;;12.10;99.90;;;;;;5093788;28;20046;-84
2023/06/02 05:18:05;;;;;;;9.48;2.72;;;12.10;99.90;;;;;;5093506;28;20448;-83
2023/06/02 05:20:30;;;;;;;12.05;2.70;;;12.00;99.90;;;;;;5092564;28;20028;-84
2023/06/02 05:22:56;;;;;;;18.00;3.20;;;12.00;99.90;;;;;;5093547;28;20055;-83
2023/06/02 05:25:22;;;;;;;14.95;3.33;;;12.10;99.90;;;;;;5093238;28;20054;-84
2023/06/02 05:27:48;;;;;;;13.80;3.28;;;12.20;99.90;;;;;;5092430;28;20099;-84
2023/06/02 05:30:14;;;;;;;11.30;3.20;;;11.50;99.90;;;;;;5093536;28;20054;-83
2023/06/02 05:32:40;;;;;;;6.95;2.40;;;12.20;99.90;;;;;;5093312;28;20438;-84
2023/06/02 05:35:06;;;;;;;13.38;2.67;;;12.10;99.90;;;;;;5092764;28;20108;-84
2023/06/02 05:37:31;;;;;;;15.15;3.58;;;12.10;99.90;;;;;;5092555;28;20024;-83
2023/06/02 05:39:57;;;;;;;13.75;2.53;;;12.10;99.90;;;;;;5092738;28;20035;-84
2023/06/02 05:42:24;;;;;;;13.38;3.33;;;12.10;99.90;;;;;;5092489;28;20020;-83
2023/06/02 05:44:49;;;;;;;22.70;4.40;;;12.10;99.90;;;;;;5094231;28;20385;-83
2023/06/02 05:47:15;;;;;;;16.08;3.00;;;12.60;99.90;;;;;;5093346;28;20483;-84
2023/06/02 05:49:40;;;;;;;18.42;2.75;;;12.20;99.90;;;;;;5092694;28;20115;-84
2023/06/02 05:52:06;;;;;;;24.83;3.78;;;12.10;99.90;;;;;;5093355;28;20612;-84
2023/06/02 05:54:32;;;;;;;14.30;3.22;;;12.20;99.90;;;;;;5092266;28;20052;-84
2023/06/02 05:56:57;;;;;;;11.55;3.10;;;12.20;99.90;;;;;;5093110;28;20512;-84
2023/06/02 05:59:23;;;;;;;12.70;3.10;;;12.40;99.90;;;;;;5093068;28;20447;-84
2023/06/02 06:01:49;;;;;;;16.30;2.97;;;12.40;99.90;;;;;;5092698;28;20423;-84
2023/06/02 06:04:14;;;;;;;20.60;3.40;;;12.40;99.90;;;;;;5092985;28;20110;-84
2023/06/02 06:06:40;;;;;;;18.15;3.35;;;12.40;99.90;;;;;;5093311;28;20024;-84
2023/06/02 06:09:05;;;;;;;18.08;3.13;;;12.40;99.90;;;;;;5092309;28;20058;-84
2023/06/02 06:11:31;;;;;;;8.90;3.00;;;12.40;99.90;;;;;;5092608;28;20042;-84
2023/06/02 06:13:57;;;;;;;13.50;3.05;;;12.40;99.90;;;;;;5092949;28;20434;-84
2023/06/02 06:16:22;;;;;;;10.02;3.28;;;13.50;99.90;;;;;;5091986;28;20020;-84
2023/06/02 06:18:48;;;;;;;9.95;2.80;;;12.40;99.90;;;;;;5092733;28;20081;-84
2023/06/02 06:21:14;;;;;;;7.32;2.53;;;12.40;99.90;;;;;;5092727;28;20016;-84
2023/06/02 06:23:39;;;;;;;12.25;3.33;;;12.40;99.90;;;;;;5091940;28;20024;-84
2023/06/02 06:26:05;;;;;;;15.32;3.22;;;12.40;99.90;;;;;;5092332;28;20028;-84
2023/06/02 06:28:32;;;;;;;15.48;2.65;;;12.30;99.90;;;;;;5092840;28;20008;-84
2023/06/02 06:30:57;;;;;;;11.95;3.00;;;12.40;99.90;;;;;;5092146;28;20039;-83
2023/06/02 06:33:23;;;;;;;18.58;3.28;;;12.40;99.90;;;;;;5092415;28;20016;-84
2023/06/02 06:35:48;;;;;;;13.18;3.33;;;12.50;99.90;;;;;;5092568;28;20028;-84
2023/06/02 06:38:14;;;;;;;13.15;3.20;;;12.50;99.90;;;;;;5091805;28;20020;-84
2023/06/02 06:40:40;;;;;;;11.15;2.47;;;12.50;99.90;;;;;;5092472;28;20020;-84
2023/06/02 06:43:05;;;;;;;11.48;4.05;;;12.50;99.90;;;;;;5092222;28;20035;-83
2023/06/02 06:45:31;;;;;;;9.77;2.92;;;12.50;99.90;;;;;;5091796;28;20102;-84
2023/06/02 06:47:57;;;;;;;15.45;2.88;;;12.40;99.90;;;;;;5092435;28;20016;-84
2023/06/02 06:50:23;;;;;;;12.93;2.75;;;12.50;99.90;;;;;;5091992;28;20502;-84
2023/06/02 06:52:50;;;;;;;9.90;2.78;;;12.50;99.90;;;;;;5093726;28;20028;-84
2023/06/02 06:55:16;;;;;;;9.25;2.95;;;12.50;99.90;;;;;;5077721;28;20055;-84
2023/06/02 06:57:41;;;;;;;11.32;2.65;;;12.50;99.90;;;;;;5096277;28;20020;-84
2023/06/02 07:00:07;;;;;;;17.40;3.78;;;11.90;99.90;;;;;;5095529;28;20024;-84
2023/06/02 07:02:33;;;;;;;13.40;2.92;;;12.40;99.90;;;;;;5095974;28;20103;-84
2023/06/02 07:04:58;;;;;;;10.10;4.25;;;12.50;99.90;;;;;;5095234;28;20127;-84
2023/06/02 07:07:24;;;;;;;19.48;4.25;;;12.50;99.90;;;;;;5097752;28;20027;-84
2023/06/02 07:09:50;;;;;;;12.05;3.53;;;12.60;99.90;;;;;;5078052;28;20119;-84
2023/06/02 07:12:15;;;;;;;16.63;4.00;;;12.50;99.90;;;;;;5095218;28;20023;-84
2023/06/02 07:14:41;;;;;;;19.25;3.45;;;12.60;99.90;;;;;;5095911;28;20054;-84
2023/06/02 07:17:07;;;;;;;15.98;3.47;;;12.60;99.90;;;;;;5095713;28;20057;-84
2023/06/02 07:19:33;;;;;;;17.17;3.20;;;12.70;99.90;;;;;;5095104;28;20498;-84
2023/06/02 07:21:58;;;;;;;12.57;3.13;;;12.80;99.90;;;;;;5095622;28;20024;-85
2023/06/02 07:24:24;;;;;;;13.48;3.45;;;12.00;99.90;;;;;;5095443;28;20039;-84
2023/06/02 07:26:49;;;;;;;18.85;3.33;;;12.80;99.90;;;;;;5094880;28;20016;-84
2023/06/02 07:29:15;;;;;;;15.70;3.95;;;12.90;99.90;;;;;;5095732;28;20059;-84
2023/06/02 07:31:40;;;;;;;17.48;3.75;;;12.90;99.90;;;;;;5095566;28;20051;-84
2023/06/02 07:34:06;;;;;;;14.00;3.80;;;12.90;99.90;;;;;;5094711;28;20110;-83
2023/06/02 07:36:32;;;;;;;9.20;2.92;;;12.90;99.90;;;;;;5095349;28;20032;-84
2023/06/02 07:38:57;;;;;;;15.90;4.00;;;13.00;99.90;;;;;;5095292;28;20452;-84
2023/06/02 07:41:23;;;;;;;15.55;3.30;;;12.80;99.90;;;;;;5094619;28;20048;-84
2023/06/02 07:43:48;;;;;;;16.90;3.65;;;12.90;99.90;;;;;;5094880;28;20017;-84
2023/06/02 07:46:14;;;;;;;11.60;2.83;;;12.90;99.90;;;;;;5094970;28;20032;-83
2023/06/02 07:48:40;;;;;;;13.57;3.00;;;12.90;99.90;;;;;;5094640;28;20035;-84
2023/06/02 07:51:06;;;;;;;18.77;4.45;;;13.00;99.90;;;;;;5095109;28;20035;-84
2023/06/02 07:53:33;;;;;;;10.85;3.08;;;13.00;99.90;;;;;;5094591;28;20115;-84
2023/06/02 07:55:59;;;;;;;13.18;3.30;;;13.00;99.90;;;;;;5094568;28;20020;-84
2023/06/02 07:58:24;;;;;;;15.23;3.22;;;13.00;99.90;;;;;;5095057;28;20031;-84
2023/06/02 08:00:50;;;;;;;14.27;3.17;;;13.30;99.90;;;;;;5094885;28;20024;-84
2023/06/02 08:03:15;;;;;;;9.55;4.10;;;13.00;99.90;;;;;;5093927;28;20415;-83
2023/06/02 08:05:44;;;;;;;15.48;3.92;;;13.00;99.90;;;;;;5094532;28;20127;-84
2023/06/02 08:08:10;;;;;;;18.15;3.05;;;13.10;99.90;;;;;;5094046;28;20020;-84
2023/06/02 08:10:35;;;;;;;15.20;3.00;;;13.10;99.90;;;;;;5094679;28;20120;-84
2023/06/02 08:13:01;;;;;;;12.88;3.20;;;13.70;99.90;;;;;;5094661;28;20031;-84
2023/06/02 08:15:27;;;;;;;13.00;3.47;;;13.20;99.90;;;;;;5094249;28;20039;-84
2023/06/02 08:17:52;;;;;;;17.52;3.38;;;13.30;99.90;;;;;;5094955;28;20020;-84
2023/06/02 08:20:18;;;;;;;16.15;3.05;;;13.30;99.90;;;;;;5094552;28;20032;-84
2023/06/02 08:22:47;;;;;;;12.32;2.78;;;13.40;99.90;;;;;;5093822;28;20050;-84
2023/06/02 08:25:14;;;;;;;15.80;2.88;;;13.40;99.90;;;;;;5094430;28;20471;-84
2023/06/02 08:27:41;;;;;;;10.35;2.28;;;13.40;99.90;;;;;;5094563;28;20456;-84
2023/06/02 08:30:08;;;;;;;15.75;3.00;;;13.60;99.90;;;;;;5099903;28;20039;-84
2023/06/02 08:32:34;;;;;;;12.20;3.03;;;13.40;99.90;;;;;;5097640;28;20023;-84
2023/06/02 08:35:01;;;;;;;15.50;3.20;;;13.40;99.90;;;;;;5085856;28;20060;-85
2023/06/02 08:37:27;;;;;;;14.98;3.05;;;13.40;99.90;;;;;;5093567;28;20536;-84
2023/06/02 08:39:53;;;;;;;14.10;2.72;;;14.60;99.90;;;;;;5094122;28;20070;-84
2023/06/02 08:42:20;;;;;;;7.30;2.28;;;14.20;99.90;;;;;;5094350;28;20059;-84
2023/06/02 08:44:46;;;;;;;10.77;3.22;;;13.80;99.90;;;;;;5093513;28;20114;-84
2023/06/02 08:47:13;;;;;;;10.73;3.33;;;13.60;99.90;;;;;;5094188;28;20462;-84
2023/06/02 08:49:43;;;;;;;15.68;3.47;;;13.60;99.90;;;;;;5094138;28;20071;-84
2023/06/02 08:52:18;;;;;;;9.65;2.63;;;13.70;99.90;;;;;;5093507;28;20111;-83
2023/06/02 08:54:44;;;;;;;18.45;3.50;;;13.70;99.90;;;;;;5094003;28;20052;-84
2023/06/02 08:57:12;;;;;;;20.17;3.70;;;13.70;99.90;;;;;;5093933;28;20020;-84
2023/06/02 08:59:40;;;;;;;14.57;3.55;;;13.50;99.90;;;;;;5093275;28;20028;-84
2023/06/02 09:02:06;;;;;;;17.13;3.38;;;13.80;99.90;;;;;;5093811;28;20020;-84
2023/06/02 09:04:31;;;;;;;13.80;3.97;;;14.70;99.90;;;;;;5092873;28;20032;-84
2023/06/02 09:07:12;;;;;;;18.25;3.88;;;13.50;99.90;;;;;;5093907;28;20400;-84
2023/06/02 09:09:42;;;;;;;17.10;3.45;;;13.60;99.90;;;;;;5093835;28;20031;-84
2023/06/02 09:12:08;;;;;;;16.63;3.03;;;13.60;99.90;;;;;;5092586;28;20031;-84
2023/06/02 09:14:38;;;;;;;20.52;4.03;;;13.70;99.90;;;;;;5093007;28;20107;-84
2023/06/02 09:17:22;;;;;;;13.73;3.23;;;13.70;99.90;;;;;;5093399;28;20115;-84
2023/06/02 09:19:49;;;;;;;18.75;3.85;;;13.70;99.90;;;;;;5092937;28;20035;-84
2023/06/02 09:22:15;;;;;;;15.85;3.85;;;13.70;99.90;;;;;;5093399;28;20016;-84
2023/06/02 09:24:40;;;;;;;14.25;3.40;;;13.70;99.90;;;;;;5093379;28;20048;-84
2023/06/02 09:27:12;;;;;;;11.18;3.70;;;14.60;99.90;;;;;;5092709;28;20475;-84
2023/06/02 09:29:38;;;;;;;9.90;3.15;;;13.80;99.90;;;;;;5093587;28;20028;-84
2023/06/02 09:32:10;;;;;;;13.70;3.60;;;13.80;99.90;;;;;;5093482;28;20020;-84
2023/06/02 09:34:37;;;;;;;18.40;3.15;;;13.80;99.90;;;;;;5092849;28;20020;-84
2023/06/02 09:37:07;;;;;;;10.32;2.75;;;13.70;99.90;;;;;;5093225;28;20379;-84
2023/06/02 09:39:33;;;;;;;10.95;3.42;;;13.70;99.90;;;;;;5092827;28;20449;-84
2023/06/02 09:42:00;;;;;;;10.55;3.33;;;13.80;99.90;;;;;;5092902;28;20082;-84
2023/06/02 09:44:26;;;;;;;9.57;2.95;;;13.80;99.90;;;;;;5093479;28;20036;-84
2023/06/02 09:46:52;;;;;;;11.95;3.30;;;13.80;99.90;;;;;;5092544;28;20028;-84
2023/06/02 09:49:18;;;;;;;20.20;3.55;;;13.80;99.90;;;;;;5093250;28;20069;-84
2023/06/02 09:51:43;;;;;;;14.43;3.35;;;13.90;99.90;;;;;;5093053;28;20095;-84
2023/06/02 09:54:10;;;;;;;13.07;3.78;;;13.90;99.90;;;;;;5101366;28;20040;-84
2023/06/02 09:56:37;;;;;;;16.25;3.30;;;13.90;99.90;;;;;;5092902;28;20476;-84
2023/06/02 09:59:06;;;;;;;24.45;4.07;;;14.00;99.90;;;;;;5093232;28;20043;-84
2023/06/02 10:01:33;;;;;;;13.48;3.33;;;14.00;99.90;;;;;;5092438;28;20482;-84
2023/06/02 10:04:00;;;;;;;13.85;3.22;;;14.00;99.90;;;;;;5092739;28;20081;-84
2023/06/02 10:06:37;;;;;;;14.77;3.10;;;14.10;99.90;;;;;;5092878;28;20059;-84
2023/06/02 10:09:33;;;;;;;11.27;4.13;;;14.20;99.90;;;;;;5092011;28;20021;-84
2023/06/02 10:12:12;;;;;;;14.55;3.05;;;14.20;99.90;;;;;;5093145;28;20080;-84
2023/06/02 10:15:14;;;;;;;13.27;3.78;;;14.20;99.90;;;;;;5092814;28;20559;-83
2023/06/02 10:18:09;;;;;;;13.55;3.45;;;14.20;99.90;;;;;;5092911;28;20032;-83
2023/06/02 10:21:08;;;;;;;16.88;4.18;;;14.20;99.90;;;;;;5092838;28;20065;-83
2023/06/02 10:23:46;;;;;;;21.05;4.03;;;14.20;99.90;;;;;;5092047;28;20020;-84
2023/06/02 10:26:28;;;;;;;15.02;3.25;;;14.20;99.90;;;;;;5094249;28;20092;-85
2023/06/02 10:28:54;;;;;;;18.33;3.60;;;14.30;99.90;;;;;;5096215;28;20066;-84
2023/06/02 10:31:32;;;;;;;16.88;3.55;;;14.30;99.90;;;;;;5096536;28;20034;-85
2023/06/02 10:34:00;;;;;;;15.85;3.55;;;14.30;99.90;;;;;;5096603;28;20379;-85
2023/06/02 10:36:26;;;;;;;15.85;3.38;;;14.30;99.90;;;;;;5096591;28;20024;-84
2023/06/02 10:38:52;;;;;;;15.80;4.07;;;14.40;99.90;;;;;;5096622;28;20064;-84
2023/06/02 10:41:22;;;;;;;14.40;4.35;;;14.40;99.90;;;;;;5096523;28;20067;-85
2023/06/02 10:44:22;;;;;;;13.52;3.97;;;14.50;99.90;;;;;;5095812;28;20027;-84
2023/06/02 10:47:08;;;;;;;17.70;4.93;;;14.50;99.90;;;;;;5096329;28;20410;-84
2023/06/02 10:49:53;;;;;;;22.25;4.10;;;15.60;99.90;;;;;;5096233;28;20043;-85
2023/06/02 10:52:18;;;;;;;14.98;3.85;;;14.60;99.90;;;;;;5096146;28;20084;-85
2023/06/02 10:54:44;;;;;;;21.02;4.70;;;14.60;99.90;;;;;;5095975;28;20136;-84
2023/06/02 10:57:12;;;;;;;17.42;4.22;;;14.60;99.90;;;;;;5095573;28;20129;-86
2023/06/02 10:59:38;;;;;;;11.63;3.88;;;14.60;99.90;;;;;;5096544;28;20024;-85
2023/06/02 11:02:04;;;;;;;13.15;3.70;;;14.70;99.90;;;;;;5096323;28;20026;-86
2023/06/02 11:04:34;;;;;;;11.77;2.88;;;15.20;99.90;;;;;;5095067;28;20039;-85
2023/06/02 11:07:21;;;;;;;16.00;3.72;;;14.80;99.90;;;;;;5095982;28;20541;-85
2023/06/02 11:09:59;;;;;;;16.13;3.97;;;14.80;99.90;;;;;;5096141;28;20429;-85
2023/06/02 11:12:50;;;;;;;14.30;3.60;;;14.80;99.90;;;;;;5095286;28;20035;-85
2023/06/02 11:15:17;;;;;;;17.83;4.00;;;14.90;99.90;;;;;;5098684;28;20024;-84
2023/06/02 11:17:43;;;;;;;20.98;3.80;;;14.90;99.90;;;;;;5105774;28;20028;-85
2023/06/02 11:20:10;;;;;;;8.75;4.05;;;14.90;99.90;;;;;;5095185;28;20047;-84
2023/06/02 11:22:36;;;;;;;15.25;4.88;;;15.00;99.90;;;;;;5095718;28;20389;-84
2023/06/02 11:25:03;;;;;;;17.30;4.43;;;15.50;99.90;;;;;;5095394;28;20032;-84
2023/06/02 11:27:40;;;;;;;15.55;4.15;;;15.10;99.90;;;;;;5095602;28;20020;-85
2023/06/02 11:30:14;;;;;;;16.75;4.05;;;15.20;99.90;;;;;;5095958;28;20035;-84
2023/06/02 11:32:41;;;;;;;13.55;4.10;;;15.30;99.90;;;;;;5095718;28;20028;-84
2023/06/02 11:35:08;;;;;;;17.90;4.95;;;14.90;99.90;;;;;;5096096;28;20115;-84
2023/06/02 11:37:40;;;;;;;12.93;3.92;;;15.30;99.90;;;;;;5094871;28;20039;-84
2023/06/02 11:40:07;;;;;;;10.50;4.40;;;15.70;99.90;;;;;;5095165;28;20043;-85
2023/06/02 11:42:38;;;;;;;12.40;3.83;;;15.40;99.90;;;;;;5095433;28;20031;-85
2023/06/02 11:45:06;;;;;;;16.05;4.35;;;15.50;99.90;;;;;;5095282;28;20081;-84
2023/06/02 11:47:32;;;;;;;19.85;4.60;;;15.50;99.90;;;;;;5094444;28;20085;-84
2023/06/02 11:49:58;;;;;;;11.25;4.35;;;15.40;99.90;;;;;;5095215;28;20494;-84
2023/06/02 11:52:23;;;;;;;16.88;3.72;;;15.50;99.90;;;;;;5095273;28;20020;-84
2023/06/02 11:54:50;;;;;;;17.15;4.53;;;15.50;99.90;;;;;;5094266;28;20551;-84
2023/06/02 11:57:28;;;;;;;11.02;3.85;;;15.50;99.90;;;;;;5094945;28;20128;-84
2023/06/02 12:00:15;;;;;;;14.73;4.90;;;15.50;99.90;;;;;;5095256;28;20438;-85
2023/06/02 12:02:43;;;;;;;14.27;4.25;;;15.60;99.90;;;;;;5095085;28;20035;-85
2023/06/02 12:05:33;;;;;;;14.52;3.92;;;15.70;99.90;;;;;;5094740;28;20035;-84
2023/06/02 12:08:20;;;;;;;16.83;5.32;;;15.70;99.90;;;;;;5094234;28;20032;-85
2023/06/02 12:10:46;;;;;;;13.30;4.47;;;15.70;99.90;;;;;;5095023;28;20024;-84
2023/06/02 12:13:31;;;;;;;16.80;4.22;;;15.70;99.90;;;;;;5094676;28;20090;-85
2023/06/02 12:16:20;;;;;;;10.68;4.35;;;15.80;99.90;;;;;;5093447;28;20059;-85
2023/06/02 12:18:47;;;;;;;23.95;4.28;;;15.90;99.90;;;;;;5089297;28;20093;-85
2023/06/02 12:21:25;;;;;;;14.85;4.43;;;15.90;99.90;;;;;;5094537;28;20047;-85
2023/06/02 12:23:51;;;;;;;18.17;3.58;;;15.90;99.90;;;;;;5094432;28;20020;-84
2023/06/02 12:26:16;;;;;;;13.27;4.95;;;16.00;99.90;;;;;;5094350;28;20035;-85
2023/06/02 12:28:42;;;;;;;19.08;5.00;;;16.00;99.90;;;;;;5093743;28;20027;-84
2023/06/02 12:31:09;;;;;;;14.60;4.25;;;15.90;99.90;;;;;;5094526;28;20031;-84
2023/06/02 12:33:35;;;;;;;23.15;5.25;;;16.00;99.90;;;;;;5094433;28;20020;-85
2023/06/02 12:36:00;;;;;;;16.50;5.03;;;16.70;99.90;;;;;;5093701;28;20017;-85
2023/06/02 12:38:27;;;;;;;17.45;5.20;;;16.30;99.90;;;;;;5098516;28;20028;-85
2023/06/02 12:40:52;;;;;;;23.45;5.43;;;16.10;99.90;;;;;;5099904;28;20035;-84
2023/06/02 12:43:19;;;;;;;15.10;5.20;;;16.10;99.90;;;;;;5093218;28;20035;-85